Time;durP1;ratioP1;P1;durP2;ratioP2;P2;SDS_P1;SDS_P2;PMS_P1;PMS_P2;Temp;Humidity;BMP_temperature;BMP_pressure;BME280_temperature;BME280_humidity;BME280_pressure;Samples;Min_cycle;Max_cycle;Signal;HPM_P1;HPM_P2
2023/03/12 00:01:00;;;;;;;0.20;0.20;;;;;;;;;;4837746;29;20060;-75
2023/03/12 00:03:26;;;;;;;0.10;0.10;;;;;;;;;;4857915;29;20061;-75
2023/03/12 00:05:52;;;;;;;0.10;0.10;;;;;;;;;;4843195;29;20055;-75
2023/03/12 00:08:24;;;;;;;0.20;0.20;;;;;;;;;;4830628;29;20054;-75
2023/03/12 00:10:50;;;;;;;0.20;0.20;;;;;;;;;;4834345;29;20416;-75
2023/03/12 00:13:16;;;;;;;0.20;0.20;;;;;;;;;;4842583;29;20469;-74
2023/03/12 00:15:42;;;;;;;0.20;0.20;;;;;;;;;;4857013;29;20097;-76
2023/03/12 00:18:08;;;;;;;0.13;0.13;;;;;;;;;;4826482;29;20061;-75
2023/03/12 00:20:34;;;;;;;0.20;0.20;;;;;;;;;;4825219;29;20060;-75
2023/03/12 00:23:00;;;;;;;0.10;0.10;;;;;;;;;;4822049;29;20057;-75
2023/03/12 00:25:27;;;;;;;0.20;0.20;;;;;;;;;;4830204;29;20403;-75
2023/03/12 00:27:53;;;;;;;0.10;0.10;;;;;;;;;;4857129;29;20140;-75
2023/03/12 00:30:19;;;;;;;0.20;0.20;;;;;;;;;;4826294;29;20049;-75
2023/03/12 00:32:45;;;;;;;0.17;0.17;;;;;;;;;;4833076;29;20137;-75
2023/03/12 00:35:12;;;;;;;0.20;0.20;;;;;;;;;;4843953;29;20507;-75
2023/03/12 00:37:38;;;;;;;0.20;0.20;;;;;;;;;;4810418;29;20050;-75
2023/03/12 00:40:05;;;;;;;0.20;0.20;;;;;;;;;;4824605;29;20046;-75
2023/03/12 00:42:31;;;;;;;0.20;0.20;;;;;;;;;;4841613;29;20049;-75
2023/03/12 00:44:58;;;;;;;0.20;0.20;;;;;;;;;;4836637;29;20053;-75
2023/03/12 00:47:26;;;;;;;0.20;0.20;;;;;;;;;;4835186;29;20061;-75
2023/03/12 00:49:52;;;;;;;0.20;0.20;;;;;;;;;;4824700;29;20082;-75
2023/03/12 00:52:18;;;;;;;0.20;0.20;;;;;;;;;;4836639;29;20106;-75
2023/03/12 00:54:44;;;;;;;0.20;0.20;;;;;;;;;;4822999;29;20065;-75
2023/03/12 00:57:10;;;;;;;0.20;0.20;;;;;;;;;;4845207;29;20049;-75
2023/03/12 00:59:39;;;;;;;0.20;0.20;;;;;;;;;;4844102;29;20065;-76
2023/03/12 01:02:08;;;;;;;0.20;0.20;;;;;;;;;;4858281;29;20398;-75
2023/03/12 01:04:34;;;;;;;0.20;0.20;;;;;;;;;;4845964;29;20058;-76
2023/03/12 01:07:00;;;;;;;0.17;0.17;;;;;;;;;;4841124;29;20465;-75
2023/03/12 01:09:26;;;;;;;0.20;0.20;;;;;;;;;;4829665;29;20514;-75
2023/03/12 01:11:52;;;;;;;0.20;0.20;;;;;;;;;;4839709;29;20419;-75
2023/03/12 01:14:18;;;;;;;0.20;0.20;;;;;;;;;;4841276;29;20464;-75
2023/03/12 01:16:44;;;;;;;0.20;0.20;;;;;;;;;;4838888;29;20053;-75
2023/03/12 01:19:11;;;;;;;0.20;0.20;;;;;;;;;;4827475;29;20056;-75
2023/03/12 01:21:37;;;;;;;0.20;0.20;;;;;;;;;;4824887;29;20054;-75
2023/03/12 01:24:06;;;;;;;0.17;0.17;;;;;;;;;;4852228;29;20053;-75
2023/03/12 01:26:32;;;;;;;0.10;0.10;;;;;;;;;;4810836;29;20060;-75
2023/03/12 01:29:01;;;;;;;0.10;0.10;;;;;;;;;;4851053;29;20555;-75
2023/03/12 01:31:27;;;;;;;0.20;0.20;;;;;;;;;;4818849;29;20054;-75
2023/03/12 01:33:53;;;;;;;0.20;0.20;;;;;;;;;;4816532;29;20057;-75
2023/03/12 01:36:21;;;;;;;0.20;0.20;;;;;;;;;;4826536;29;20053;-75
2023/03/12 01:38:47;;;;;;;0.20;0.20;;;;;;;;;;4827024;29;20381;-75
2023/03/12 01:41:13;;;;;;;0.20;0.20;;;;;;;;;;4839271;29;20478;-75
2023/03/12 01:43:39;;;;;;;0.20;0.20;;;;;;;;;;4830720;29;20129;-75
2023/03/12 01:46:05;;;;;;;0.17;0.17;;;;;;;;;;4853242;29;20113;-75
2023/03/12 01:48:35;;;;;;;0.10;0.10;;;;;;;;;;4853617;29;20049;-75
2023/03/12 01:51:04;;;;;;;0.20;0.20;;;;;;;;;;4818116;29;20060;-75
2023/03/12 01:53:30;;;;;;;0.20;0.20;;;;;;;;;;4837530;29;20106;-75
2023/03/12 01:55:57;;;;;;;0.17;0.17;;;;;;;;;;4823358;29;20249;-75
2023/03/12 01:58:24;;;;;;;0.20;0.20;;;;;;;;;;4822219;29;20046;-75
2023/03/12 02:00:50;;;;;;;0.20;0.20;;;;;;;;;;4827067;29;20041;-75
2023/03/12 02:03:16;;;;;;;0.20;0.20;;;;;;;;;;4856042;29;20518;-75
2023/03/12 02:05:47;;;;;;;0.10;0.10;;;;;;;;;;4839971;29;20538;-75
2023/03/12 02:08:14;;;;;;;0.20;0.20;;;;;;;;;;4857756;29;20105;-75
2023/03/12 02:10:40;;;;;;;0.20;0.20;;;;;;;;;;4815570;29;20066;-75
2023/03/12 02:13:08;;;;;;;0.17;0.17;;;;;;;;;;4834537;29;20533;-75
2023/03/12 02:15:35;;;;;;;0.10;0.10;;;;;;;;;;4846617;29;20050;-75
2023/03/12 02:18:05;;;;;;;0.20;0.20;;;;;;;;;;4821023;29;20510;-75
2023/03/12 02:20:31;;;;;;;0.20;0.20;;;;;;;;;;4839113;29;20057;-75
2023/03/12 02:23:02;;;;;;;0.20;0.20;;;;;;;;;;4812046;29;20061;-75
2023/03/12 02:25:39;;;;;;;0.20;0.20;;;;;;;;;;4826590;29;20093;-75
2023/03/12 02:28:07;;;;;;;0.20;0.20;;;;;;;;;;4826773;29;20057;-75
2023/03/12 02:30:33;;;;;;;0.20;0.20;;;;;;;;;;4824300;29;20042;-75
2023/03/12 02:33:01;;;;;;;0.10;0.10;;;;;;;;;;4844347;29;20129;-77
2023/03/12 02:35:27;;;;;;;0.20;0.20;;;;;;;;;;4848555;29;20053;-75
2023/03/12 02:37:54;;;;;;;0.20;0.20;;;;;;;;;;4855136;29;20132;-75
2023/03/12 02:40:20;;;;;;;0.20;0.20;;;;;;;;;;4839602;29;20049;-76
2023/03/12 02:42:46;;;;;;;0.10;0.10;;;;;;;;;;4837504;29;20042;-75
2023/03/12 02:45:12;;;;;;;0.20;0.20;;;;;;;;;;4850424;29;20149;-75
2023/03/12 02:47:38;;;;;;;0.20;0.20;;;;;;;;;;4838865;29;20048;-75
2023/03/12 02:50:04;;;;;;;0.20;0.20;;;;;;;;;;4828408;29;20054;-75
2023/03/12 02:52:34;;;;;;;0.20;0.20;;;;;;;;;;4837964;29;20042;-75
2023/03/12 02:55:00;;;;;;;0.20;0.20;;;;;;;;;;4825966;29;20342;-75
2023/03/12 02:57:26;;;;;;;0.20;0.20;;;;;;;;;;4841374;29;20045;-76
2023/03/12 02:59:52;;;;;;;0.20;0.20;;;;;;;;;;4817082;29;20058;-75
2023/03/12 03:02:18;;;;;;;0.20;0.20;;;;;;;;;;4837911;29;20042;-75
2023/03/12 03:04:44;;;;;;;0.10;0.10;;;;;;;;;;4830684;29;20054;-76
2023/03/12 03:07:10;;;;;;;0.20;0.20;;;;;;;;;;4822592;29;20038;-75
2023/03/12 03:09:36;;;;;;;0.20;0.20;;;;;;;;;;4827752;29;20136;-75
2023/03/12 03:12:03;;;;;;;0.20;0.20;;;;;;;;;;4838633;29;20061;-75
2023/03/12 03:14:29;;;;;;;0.20;0.20;;;;;;;;;;4842481;29;20109;-76
2023/03/12 03:16:55;;;;;;;0.20;0.20;;;;;;;;;;4854495;29;20045;-75
2023/03/12 03:19:21;;;;;;;0.20;0.20;;;;;;;;;;4825274;29;20054;-75
2023/03/12 03:21:47;;;;;;;0.20;0.20;;;;;;;;;;4859339;29;20050;-76
2023/03/12 03:24:13;;;;;;;0.20;0.20;;;;;;;;;;4832040;29;20119;-76
2023/03/12 03:26:39;;;;;;;0.20;0.20;;;;;;;;;;4842367;29;20272;-75
2023/03/12 03:29:05;;;;;;;0.10;0.10;;;;;;;;;;4847233;29;20565;-75
2023/03/12 03:31:31;;;;;;;0.10;0.10;;;;;;;;;;4825994;29;20494;-75
2023/03/12 03:33:57;;;;;;;0.17;0.17;;;;;;;;;;4825131;29;20574;-76
2023/03/12 03:36:23;;;;;;;0.20;0.20;;;;;;;;;;4825389;29;20106;-76
2023/03/12 03:38:49;;;;;;;0.15;0.15;;;;;;;;;;4855075;29;20045;-76
2023/03/12 03:41:17;;;;;;;0.20;0.20;;;;;;;;;;4841119;29;20129;-75
2023/03/12 03:43:43;;;;;;;0.20;0.20;;;;;;;;;;4839730;29;20049;-76
2023/03/12 03:46:10;;;;;;;0.20;0.20;;;;;;;;;;4841233;29;20052;-75
2023/03/12 03:48:36;;;;;;;0.20;0.20;;;;;;;;;;4829160;29;20605;-76
2023/03/12 03:51:03;;;;;;;0.20;0.20;;;;;;;;;;4824167;29;20125;-76
2023/03/12 03:53:32;;;;;;;0.10;0.10;;;;;;;;;;4854721;29;20041;-76
2023/03/12 03:55:58;;;;;;;0.20;0.20;;;;;;;;;;4841906;29;20261;-76
2023/03/12 03:58:24;;;;;;;0.20;0.20;;;;;;;;;;4859055;29;20434;-76
2023/03/12 04:00:50;;;;;;;0.20;0.20;;;;;;;;;;4848091;29;20414;-76
2023/03/12 04:03:16;;;;;;;0.10;0.10;;;;;;;;;;4838037;29;20298;-76
2023/03/12 04:05:45;;;;;;;0.20;0.20;;;;;;;;;;4834699;29;20045;-76
2023/03/12 04:08:14;;;;;;;0.20;0.20;;;;;;;;;;4825951;29;20136;-76
2023/03/12 04:10:40;;;;;;;0.20;0.20;;;;;;;;;;4828005;29;20133;-75
2023/03/12 04:13:06;;;;;;;0.20;0.20;;;;;;;;;;4847211;29;20129;-76
2023/03/12 04:15:32;;;;;;;0.20;0.20;;;;;;;;;;4843709;29;20128;-76
2023/03/12 04:17:58;;;;;;;0.20;0.20;;;;;;;;;;4826482;29;20076;-76
2023/03/12 04:20:25;;;;;;;0.20;0.20;;;;;;;;;;4841675;29;20050;-76
2023/03/12 04:22:50;;;;;;;0.20;0.20;;;;;;;;;;4828214;29;20407;-76
2023/03/12 04:25:17;;;;;;;0.20;0.20;;;;;;;;;;4857121;29;20060;-77
2023/03/12 04:27:43;;;;;;;0.20;0.20;;;;;;;;;;4830120;29;20512;-76
2023/03/12 04:30:09;;;;;;;0.20;0.20;;;;;;;;;;4845171;29;20486;-75
2023/03/12 04:32:35;;;;;;;0.13;0.13;;;;;;;;;;4842078;29;20388;-76
2023/03/12 04:35:01;;;;;;;0.20;0.20;;;;;;;;;;4860471;29;20541;-76
2023/03/12 04:37:27;;;;;;;0.10;0.10;;;;;;;;;;4810920;29;20045;-76
2023/03/12 04:39:53;;;;;;;0.20;0.20;;;;;;;;;;4823018;29;20053;-76
2023/03/12 04:42:19;;;;;;;0.13;0.13;;;;;;;;;;4836531;29;20052;-76
2023/03/12 04:44:45;;;;;;;0.15;0.15;;;;;;;;;;4831912;29;20065;-76
2023/03/12 04:47:11;;;;;;;0.20;0.20;;;;;;;;;;4822993;29;20402;-76
2023/03/12 04:49:38;;;;;;;0.20;0.20;;;;;;;;;;4853866;29;20056;-76
2023/03/12 04:52:04;;;;;;;0.20;0.20;;;;;;;;;;4824428;29;20441;-76
2023/03/12 04:54:32;;;;;;;0.20;0.20;;;;;;;;;;4838841;29;20042;-76
2023/03/12 04:57:00;;;;;;;0.20;0.20;;;;;;;;;;4841299;29;20050;-76
2023/03/12 04:59:26;;;;;;;0.10;0.10;;;;;;;;;;4828210;29;20057;-76
2023/03/12 05:01:52;;;;;;;0.10;0.10;;;;;;;;;;4852594;29;20080;-75
2023/03/12 05:04:18;;;;;;;0.20;0.20;;;;;;;;;;4845211;29;20077;-76
2023/03/12 05:06:44;;;;;;;0.20;0.20;;;;;;;;;;4828008;29;20547;-76
2023/03/12 05:09:10;;;;;;;0.15;0.15;;;;;;;;;;4822531;29;20053;-76
2023/03/12 05:11:37;;;;;;;0.10;0.10;;;;;;;;;;4855022;29;20061;-76
2023/03/12 05:14:03;;;;;;;0.20;0.20;;;;;;;;;;4841283;29;20092;-76
2023/03/12 05:16:29;;;;;;;0.20;0.20;;;;;;;;;;4823311;29;20077;-76
2023/03/12 05:18:55;;;;;;;0.20;0.20;;;;;;;;;;4828140;29;20054;-76
2023/03/12 05:21:21;;;;;;;0.20;0.20;;;;;;;;;;4853971;29;20049;-76
2023/03/12 05:23:50;;;;;;;0.20;0.20;;;;;;;;;;4841786;29;20054;-76
2023/03/12 05:26:21;;;;;;;0.20;0.20;;;;;;;;;;4849055;29;20049;-76
2023/03/12 05:28:51;;;;;;;0.20;0.20;;;;;;;;;;4823709;29;20132;-76
2023/03/12 05:31:17;;;;;;;0.20;0.20;;;;;;;;;;4830714;29;20475;-76
2023/03/12 05:33:43;;;;;;;0.20;0.20;;;;;;;;;;4839870;29;20049;-76
2023/03/12 05:36:09;;;;;;;0.20;0.20;;;;;;;;;;4859203;29;20088;-76
2023/03/12 05:38:36;;;;;;;0.20;0.20;;;;;;;;;;4855001;29;20092;-75
2023/03/12 05:41:02;;;;;;;0.15;0.15;;;;;;;;;;4821533;29;20097;-76
2023/03/12 05:43:29;;;;;;;0.20;0.20;;;;;;;;;;4839282;29;20042;-76
2023/03/12 05:45:59;;;;;;;0.20;0.20;;;;;;;;;;4837049;29;20046;-76
2023/03/12 05:48:25;;;;;;;0.10;0.10;;;;;;;;;;4838627;29;20054;-76
2023/03/12 05:50:51;;;;;;;0.20;0.20;;;;;;;;;;4828885;29;20073;-76
2023/03/12 05:53:20;;;;;;;0.20;0.20;;;;;;;;;;4857559;29;20049;-76
2023/03/12 05:55:46;;;;;;;0.20;0.20;;;;;;;;;;4857079;29;20128;-76
2023/03/12 05:58:12;;;;;;;0.20;0.20;;;;;;;;;;4839311;29;20136;-76
2023/03/12 06:00:40;;;;;;;0.20;0.20;;;;;;;;;;4843923;29;20049;-76
2023/03/12 06:03:06;;;;;;;0.20;0.20;;;;;;;;;;4843665;29;20137;-76
2023/03/12 06:05:33;;;;;;;0.15;0.15;;;;;;;;;;4842034;29;20045;-76
2023/03/12 06:08:00;;;;;;;0.20;0.20;;;;;;;;;;4856565;29;20387;-76
2023/03/12 06:10:26;;;;;;;0.20;0.20;;;;;;;;;;4847581;29;20061;-76
2023/03/12 06:12:52;;;;;;;0.20;0.20;;;;;;;;;;4855775;29;20045;-76
2023/03/12 06:15:18;;;;;;;0.20;0.20;;;;;;;;;;4855458;29;20041;-76
2023/03/12 06:17:44;;;;;;;0.20;0.20;;;;;;;;;;4841945;29;20251;-76
2023/03/12 06:20:10;;;;;;;0.10;0.10;;;;;;;;;;4827686;29;20057;-75
2023/03/12 06:22:36;;;;;;;0.20;0.20;;;;;;;;;;4839155;29;20060;-76
2023/03/12 06:25:03;;;;;;;0.10;0.10;;;;;;;;;;4851194;29;20038;-76
2023/03/12 06:27:29;;;;;;;0.20;0.20;;;;;;;;;;4824536;29;20052;-76
2023/03/12 06:29:55;;;;;;;0.17;0.17;;;;;;;;;;4829534;29;20053;-75
2023/03/12 06:32:21;;;;;;;0.10;0.10;;;;;;;;;;4839114;29;20530;-76
2023/03/12 06:34:47;;;;;;;0.20;0.20;;;;;;;;;;4857263;29;20045;-76
2023/03/12 06:37:17;;;;;;;0.20;0.20;;;;;;;;;;4830904;29;20144;-76
2023/03/12 06:39:43;;;;;;;0.10;0.10;;;;;;;;;;4850965;29;20098;-76
2023/03/12 06:42:11;;;;;;;0.20;0.20;;;;;;;;;;4846250;29;20053;-76
2023/03/12 06:44:40;;;;;;;0.10;0.10;;;;;;;;;;4839958;29;20063;-76
2023/03/12 06:47:06;;;;;;;0.20;0.20;;;;;;;;;;4835975;29;20532;-76
2023/03/12 06:49:34;;;;;;;0.20;0.20;;;;;;;;;;4852708;29;20038;-76
2023/03/12 06:52:00;;;;;;;0.20;0.20;;;;;;;;;;4832507;29;20050;-76
2023/03/12 06:54:26;;;;;;;0.10;0.10;;;;;;;;;;4822755;29;20061;-75
2023/03/12 06:56:52;;;;;;;0.10;0.10;;;;;;;;;;4844999;29;20129;-75
2023/03/12 06:59:20;;;;;;;0.20;0.20;;;;;;;;;;4854699;29;20049;-75
2023/03/12 07:01:46;;;;;;;0.20;0.20;;;;;;;;;;4823291;29;20489;-75
2023/03/12 07:04:13;;;;;;;0.20;0.20;;;;;;;;;;4837718;29;20057;-75
2023/03/12 07:06:39;;;;;;;0.20;0.20;;;;;;;;;;4843970;29;20052;-75
2023/03/12 07:09:05;;;;;;;0.10;0.10;;;;;;;;;;4820084;29;20084;-75
2023/03/12 07:11:31;;;;;;;0.20;0.20;;;;;;;;;;4821597;29;20455;-75
2023/03/12 07:13:57;;;;;;;0.20;0.20;;;;;;;;;;4829941;29;20050;-75
2023/03/12 07:16:23;;;;;;;0.10;0.10;;;;;;;;;;4857807;29;20045;-75
2023/03/12 07:18:49;;;;;;;0.20;0.20;;;;;;;;;;4840627;29;20049;-75
2023/03/12 07:21:21;;;;;;;0.10;0.10;;;;;;;;;;4842052;29;20470;-75
2023/03/12 07:23:48;;;;;;;0.20;0.20;;;;;;;;;;4822467;29;20050;-76
2023/03/12 07:26:14;;;;;;;0.20;0.20;;;;;;;;;;4837125;29;20058;-76
2023/03/12 07:28:40;;;;;;;0.20;0.20;;;;;;;;;;4831005;29;20490;-75
2023/03/12 07:31:06;;;;;;;0.20;0.20;;;;;;;;;;4827173;29;20467;-76
2023/03/12 07:33:32;;;;;;;0.20;0.20;;;;;;;;;;4821359;29;20141;-76
2023/03/12 07:35:58;;;;;;;0.20;0.20;;;;;;;;;;4831291;29;20043;-75
2023/03/12 07:38:25;;;;;;;0.20;0.20;;;;;;;;;;4828575;29;20161;-76
2023/03/12 07:40:51;;;;;;;0.20;0.20;;;;;;;;;;4821036;29;20045;-75
2023/03/12 07:43:18;;;;;;;0.20;0.20;;;;;;;;;;4842856;29;20046;-75
2023/03/12 07:45:44;;;;;;;0.20;0.20;;;;;;;;;;4821950;29;20058;-75
2023/03/12 07:48:10;;;;;;;0.20;0.20;;;;;;;;;;4820169;29;20136;-76
2023/03/12 07:50:36;;;;;;;0.20;0.20;;;;;;;;;;4837486;29;20053;-75
2023/03/12 07:53:03;;;;;;;0.20;0.20;;;;;;;;;;4821544;29;20065;-74
2023/03/12 07:55:29;;;;;;;0.20;0.20;;;;;;;;;;4828812;29;20110;-73
2023/03/12 07:57:57;;;;;;;0.20;0.20;;;;;;;;;;4835440;29;20045;-72
2023/03/12 08:00:24;;;;;;;0.20;0.20;;;;;;;;;;4844624;29;20423;-73
2023/03/12 08:02:50;;;;;;;0.20;0.20;;;;;;;;;;4833081;29;20042;-73
2023/03/12 08:05:16;;;;;;;0.10;0.10;;;;;;;;;;4842726;29;20583;-72
2023/03/12 08:07:42;;;;;;;0.20;0.20;;;;;;;;;;4847341;29;20137;-73
2023/03/12 08:10:10;;;;;;;0.20;0.20;;;;;;;;;;4844174;29;20069;-73
2023/03/12 08:12:36;;;;;;;0.10;0.10;;;;;;;;;;4849189;29;20057;-73
2023/03/12 08:15:03;;;;;;;0.20;0.20;;;;;;;;;;4844164;29;20058;-73
2023/03/12 08:17:29;;;;;;;0.20;0.20;;;;;;;;;;4837753;29;20419;-72
2023/03/12 08:19:56;;;;;;;0.20;0.20;;;;;;;;;;4823493;29;20065;-73
2023/03/12 08:22:22;;;;;;;0.20;0.20;;;;;;;;;;4823767;29;20187;-73
2023/03/12 08:24:48;;;;;;;0.20;0.20;;;;;;;;;;4840863;29;20554;-72
2023/03/12 08:27:14;;;;;;;0.20;0.20;;;;;;;;;;4822081;29;20507;-73
2023/03/12 08:29:40;;;;;;;0.20;0.20;;;;;;;;;;4817971;29;20061;-72
2023/03/12 08:32:07;;;;;;;0.20;0.20;;;;;;;;;;4820300;29;20415;-73
2023/03/12 08:34:33;;;;;;;0.20;0.20;;;;;;;;;;4824523;29;20540;-72
2023/03/12 08:36:59;;;;;;;0.20;0.20;;;;;;;;;;4823445;29;20495;-73
2023/03/12 08:39:25;;;;;;;0.20;0.20;;;;;;;;;;4841868;29;20078;-73
2023/03/12 08:41:54;;;;;;;0.20;0.20;;;;;;;;;;4824435;29;20049;-74
2023/03/12 08:44:24;;;;;;;0.20;0.20;;;;;;;;;;4824258;29;20046;-74
2023/03/12 08:46:50;;;;;;;0.20;0.20;;;;;;;;;;4841752;29;20057;-73
2023/03/12 08:49:16;;;;;;;0.20;0.20;;;;;;;;;;4841060;29;20129;-73
2023/03/12 08:51:42;;;;;;;0.20;0.20;;;;;;;;;;4840268;29;20050;-74
2023/03/12 08:54:08;;;;;;;0.20;0.20;;;;;;;;;;4843818;29;20049;-74
2023/03/12 08:56:37;;;;;;;0.20;0.20;;;;;;;;;;4842412;29;20103;-73
2023/03/12 08:59:03;;;;;;;0.20;0.20;;;;;;;;;;4854763;29;20136;-73
2023/03/12 09:01:29;;;;;;;0.20;0.20;;;;;;;;;;4824290;29;20082;-75
2023/03/12 09:03:55;;;;;;;0.20;0.20;;;;;;;;;;4824962;29;20102;-74
2023/03/12 09:06:21;;;;;;;0.20;0.20;;;;;;;;;;4837441;29;20141;-75
2023/03/12 09:08:48;;;;;;;0.20;0.20;;;;;;;;;;4839835;29;20511;-73
2023/03/12 09:11:14;;;;;;;0.20;0.20;;;;;;;;;;4838617;29;20104;-75
2023/03/12 09:13:41;;;;;;;0.20;0.20;;;;;;;;;;4821164;29;20110;-79
2023/03/12 09:16:10;;;;;;;0.20;0.20;;;;;;;;;;4841151;29;20097;-80
2023/03/12 09:18:36;;;;;;;0.20;0.20;;;;;;;;;;4820163;29;20054;-76
2023/03/12 09:21:02;;;;;;;0.20;0.20;;;;;;;;;;4809537;29;20046;-77
2023/03/12 09:23:28;;;;;;;0.20;0.20;;;;;;;;;;4822676;29;20528;-77
2023/03/12 09:25:54;;;;;;;0.20;0.20;;;;;;;;;;4823922;29;20050;-77
2023/03/12 09:28:21;;;;;;;0.20;0.20;;;;;;;;;;4840124;29;20537;-76
2023/03/12 09:30:47;;;;;;;0.20;0.20;;;;;;;;;;4824587;29;20050;-77
2023/03/12 09:33:14;;;;;;;0.20;0.20;;;;;;;;;;4838131;29;20052;-77
2023/03/12 09:35:44;;;;;;;0.20;0.20;;;;;;;;;;4822749;29;20154;-77
2023/03/12 09:38:14;;;;;;;0.20;0.20;;;;;;;;;;4819511;29;20057;-78
2023/03/12 09:40:43;;;;;;;0.20;0.20;;;;;;;;;;4823568;29;20052;-78
2023/03/12 09:43:33;;;;;;;0.20;0.20;;;;;;;;;;4821830;29;20053;-78
2023/03/12 09:45:59;;;;;;;0.20;0.20;;;;;;;;;;4824109;29;20065;-78
2023/03/12 09:48:31;;;;;;;0.20;0.20;;;;;;;;;;4839208;29;20046;-78
2023/03/12 09:50:59;;;;;;;0.20;0.20;;;;;;;;;;4840791;29;20672;-79
2023/03/12 09:53:39;;;;;;;0.10;0.10;;;;;;;;;;4855764;29;20045;-74
2023/03/12 09:56:09;;;;;;;0.20;0.20;;;;;;;;;;4834599;29;20037;-79
2023/03/12 09:58:37;;;;;;;0.20;0.20;;;;;;;;;;4857275;29;20053;-79
2023/03/12 10:01:28;;;;;;;0.20;0.20;;;;;;;;;;4847318;29;20067;-78
2023/03/12 10:03:57;;;;;;;0.20;0.20;;;;;;;;;;4847962;29;20046;-78
2023/03/12 10:06:26;;;;;;;0.10;0.10;;;;;;;;;;4842462;29;20046;-78
2023/03/12 10:09:19;;;;;;;0.20;0.20;;;;;;;;;;4847427;29;20050;-78
2023/03/12 10:11:54;;;;;;;0.20;0.20;;;;;;;;;;4839167;29;20114;-78
2023/03/12 10:14:26;;;;;;;0.20;0.20;;;;;;;;;;4839569;29;20053;-79
2023/03/12 10:16:58;;;;;;;0.20;0.20;;;;;;;;;;4813258;29;20498;-75
2023/03/12 10:19:37;;;;;;;0.20;0.20;;;;;;;;;;4810221;29;20407;-78
2023/03/12 10:22:07;;;;;;;0.20;0.20;;;;;;;;;;4831798;29;20046;-81
2023/03/12 10:25:08;;;;;;;0.20;0.20;;;;;;;;;;4814723;29;20206;-80
2023/03/12 10:27:36;;;;;;;0.20;0.20;;;;;;;;;;4752659;30;20045;-79
2023/03/12 10:30:02;;;;;;;0.20;0.20;;;;;;;;;;4802118;29;20138;-79
2023/03/12 10:32:42;;;;;;;0.20;0.20;;;;;;;;;;4835840;29;20101;-81
2023/03/12 10:35:14;;;;;;;0.20;0.20;;;;;;;;;;4836039;29;20442;-80
2023/03/12 10:37:42;;;;;;;0.10;0.10;;;;;;;;;;4820789;29;20077;-80
2023/03/12 10:40:14;;;;;;;0.20;0.20;;;;;;;;;;4836319;29;20038;-79
2023/03/12 10:42:40;;;;;;;0.20;0.20;;;;;;;;;;4818655;29;20054;-78
2023/03/12 10:45:09;;;;;;;0.13;0.13;;;;;;;;;;4832557;29;20056;-77
2023/03/12 10:47:42;;;;;;;0.20;0.20;;;;;;;;;;4837822;29;20050;-80
2023/03/12 10:50:11;;;;;;;0.20;0.20;;;;;;;;;;4817537;29;20053;-78
2023/03/12 10:52:37;;;;;;;0.10;0.10;;;;;;;;;;4821019;29;20484;-82
2023/03/12 10:55:19;;;;;;;0.20;0.20;;;;;;;;;;4817258;29;20052;-77
2023/03/12 10:57:56;;;;;;;0.20;0.20;;;;;;;;;;4831676;29;20122;-79
2023/03/12 11:00:27;;;;;;;0.20;0.20;;;;;;;;;;4836393;29;20062;-79
2023/03/12 11:03:02;;;;;;;0.10;0.10;;;;;;;;;;4820307;29;20050;-74
2023/03/12 11:05:57;;;;;;;0.20;0.20;;;;;;;;;;4822661;29;20050;-79
2023/03/12 11:08:26;;;;;;;0.20;0.20;;;;;;;;;;4830401;29;20062;-77
2023/03/12 11:10:52;;;;;;;0.20;0.20;;;;;;;;;;4836314;29;20557;-77
2023/03/12 11:13:30;;;;;;;0.20;0.20;;;;;;;;;;4829566;29;20069;-78
2023/03/12 11:15:58;;;;;;;0.20;0.20;;;;;;;;;;4839826;29;20054;-77
2023/03/12 11:18:28;;;;;;;0.20;0.20;;;;;;;;;;4819931;29;20053;-76
2023/03/12 11:21:12;;;;;;;0.20;0.20;;;;;;;;;;4824707;29;20106;-76
2023/03/12 11:23:43;;;;;;;0.10;0.10;;;;;;;;;;4834990;29;20776;-75
2023/03/12 11:26:19;;;;;;;0.20;0.20;;;;;;;;;;4837072;29;20455;-76
2023/03/12 11:29:00;;;;;;;0.20;0.20;;;;;;;;;;4824502;29;20053;-77
2023/03/12 11:31:38;;;;;;;0.20;0.20;;;;;;;;;;4839308;29;20050;-79
2023/03/12 11:34:05;;;;;;;0.20;0.20;;;;;;;;;;4824825;29;20399;-78
2023/03/12 11:36:31;;;;;;;0.20;0.20;;;;;;;;;;4839769;29;20129;-76
2023/03/12 11:39:03;;;;;;;0.20;0.20;;;;;;;;;;4816418;29;20041;-80
2023/03/12 11:41:42;;;;;;;0.20;0.20;;;;;;;;;;4841571;29;20060;-81
2023/03/12 11:46:58;;;;;;;0.10;0.10;;;;;;;;;;4854425;23;20845;-75
2023/03/12 11:49:41;;;;;;;0.20;0.20;;;;;;;;;;4840672;29;20041;-73
2023/03/12 11:52:07;;;;;;;0.20;0.20;;;;;;;;;;4859554;29;20082;-72
2023/03/12 11:54:52;;;;;;;0.20;0.20;;;;;;;;;;4836114;29;20480;-78
2023/03/12 11:57:27;;;;;;;0.20;0.20;;;;;;;;;;4839122;29;20074;-83
2023/03/12 12:00:09;;;;;;;0.20;0.20;;;;;;;;;;4858114;29;20045;-79
2023/03/12 12:02:44;;;;;;;0.20;0.20;;;;;;;;;;4838599;29;20659;-76
2023/03/12 12:05:33;;;;;;;0.20;0.20;;;;;;;;;;4836012;29;20053;-79
2023/03/12 12:08:05;;;;;;;0.20;0.20;;;;;;;;;;4835077;29;20076;-77
2023/03/12 12:10:39;;;;;;;0.20;0.20;;;;;;;;;;4837133;29;20045;-78
2023/03/12 12:13:21;;;;;;;0.10;0.10;;;;;;;;;;4829803;29;20041;-79
2023/03/12 12:15:57;;;;;;;0.20;0.20;;;;;;;;;;4833284;29;20049;-78
2023/03/12 12:18:43;;;;;;;0.20;0.20;;;;;;;;;;4833641;29;20125;-80
2023/03/12 12:21:18;;;;;;;0.20;0.20;;;;;;;;;;4832085;29;20136;-77
2023/03/12 12:23:57;;;;;;;0.20;0.20;;;;;;;;;;4849723;29;20108;-78
2023/03/12 12:26:42;;;;;;;0.20;0.20;;;;;;;;;;4850790;29;20045;-77
2023/03/12 12:29:20;;;;;;;0.20;0.20;;;;;;;;;;4835077;29;20133;-79
2023/03/12 12:31:50;;;;;;;0.20;0.20;;;;;;;;;;4826118;29;20081;-77
2023/03/12 12:34:40;;;;;;;0.20;0.20;;;;;;;;;;4842282;29;20744;-78
2023/03/12 12:37:33;;;;;;;0.20;0.20;;;;;;;;;;4841263;29;20049;-76
2023/03/12 12:40:18;;;;;;;0.20;0.20;;;;;;;;;;4816777;29;20435;-80
2023/03/12 12:42:48;;;;;;;0.15;0.15;;;;;;;;;;4844247;29;20764;-82
2023/03/12 12:45:15;;;;;;;0.20;0.20;;;;;;;;;;4850613;29;20136;-78
2023/03/12 12:50:44;;;;;;;0.10;0.10;;;;;;;;;;4856452;29;20053;-75
2023/03/12 12:53:20;;;;;;;0.20;0.20;;;;;;;;;;4843808;29;20637;-77
2023/03/12 12:55:49;;;;;;;0.20;0.20;;;;;;;;;;4859813;29;20056;-70
2023/03/12 12:58:20;;;;;;;0.20;0.20;;;;;;;;;;4847442;29;20073;-76
2023/03/12 13:00:46;;;;;;;0.20;0.20;;;;;;;;;;4850835;29;20052;-81
2023/03/12 13:03:20;;;;;;;0.20;0.20;;;;;;;;;;4862153;29;20269;-82
2023/03/12 13:05:46;;;;;;;0.20;0.20;;;;;;;;;;4863800;29;20063;-80
2023/03/12 13:08:37;;;;;;;0.20;0.20;;;;;;;;;;4846727;29;20732;-83
2023/03/12 13:11:22;;;;;;;0.20;0.20;;;;;;;;;;4848915;29;20151;-83
2023/03/12 13:13:50;;;;;;;0.10;0.10;;;;;;;;;;4850389;29;20119;-81
2023/03/12 13:16:32;;;;;;;0.20;0.20;;;;;;;;;;4846214;29;20053;-77
2023/03/12 13:18:59;;;;;;;0.20;0.20;;;;;;;;;;4860285;29;20105;-81
2023/03/12 13:21:25;;;;;;;0.20;0.20;;;;;;;;;;4849482;29;20465;-82
2023/03/12 13:24:04;;;;;;;0.20;0.20;;;;;;;;;;4848555;29;20064;-81
2023/03/12 13:26:48;;;;;;;0.20;0.20;;;;;;;;;;4843200;23;20614;-80
2023/03/12 13:29:22;;;;;;;0.13;0.13;;;;;;;;;;4855145;29;20045;-89
2023/03/12 13:31:49;;;;;;;0.20;0.20;;;;;;;;;;4839869;29;20049;-86
2023/03/12 13:34:15;;;;;;;0.13;0.13;;;;;;;;;;4842933;29;20050;-76
2023/03/12 13:36:43;;;;;;;0.10;0.10;;;;;;;;;;4838064;29;20057;-84
2023/03/12 13:39:19;;;;;;;0.10;0.10;;;;;;;;;;4838189;29;20517;-85
2023/03/12 13:41:51;;;;;;;0.20;0.20;;;;;;;;;;4837868;29;20058;-82
2023/03/12 13:44:38;;;;;;;0.20;0.20;;;;;;;;;;4867463;29;20036;-86
2023/03/12 13:47:10;;;;;;;0.15;0.15;;;;;;;;;;4845220;29;20049;-86
2023/03/12 13:49:41;;;;;;;0.10;0.10;;;;;;;;;;4859312;29;20057;-83
2023/03/12 13:52:10;;;;;;;;;;;;;;;;;;4854037;29;20120;-86
2023/03/12 13:54:40;;;;;;;0.20;0.20;;;;;;;;;;4838659;29;19924;-83
2023/03/12 13:57:25;;;;;;;0.13;0.13;;;;;;;;;;4856193;29;20479;-85
2023/03/12 13:59:52;;;;;;;0.10;0.10;;;;;;;;;;4851668;29;20554;-83
2023/03/12 14:02:26;;;;;;;0.20;0.20;;;;;;;;;;4834991;29;20060;-81
2023/03/12 14:04:53;;;;;;;0.10;0.10;;;;;;;;;;4834889;29;20056;-77
2023/03/12 14:07:42;;;;;;;0.10;0.10;;;;;;;;;;4850047;29;20109;-80
2023/03/12 14:10:22;;;;;;;0.20;0.20;;;;;;;;;;4849850;29;20061;-78
2023/03/12 14:12:48;;;;;;;0.10;0.10;;;;;;;;;;4855000;29;20045;-81
2023/03/12 14:15:21;;;;;;;0.15;0.15;;;;;;;;;;4855479;29;20064;-81
2023/03/12 14:17:53;;;;;;;0.10;0.10;;;;;;;;;;4848589;29;20065;-77
2023/03/12 14:20:21;;;;;;;0.20;0.20;;;;;;;;;;4837996;29;20054;-78
2023/03/12 14:22:57;;;;;;;0.20;0.20;;;;;;;;;;4851199;29;20406;-78
2023/03/12 14:25:26;;;;;;;0.20;0.20;;;;;;;;;;4835104;29;20217;-77
2023/03/12 14:27:52;;;;;;;0.20;0.20;;;;;;;;;;4853228;29;20060;-75
2023/03/12 14:30:29;;;;;;;0.10;0.10;;;;;;;;;;4837119;29;20045;-78
2023/03/12 14:32:57;;;;;;;0.20;0.20;;;;;;;;;;4843498;29;20045;-77
2023/03/12 14:35:27;;;;;;;0.20;0.20;;;;;;;;;;4860076;29;20105;-77
2023/03/12 14:37:59;;;;;;;0.20;0.20;;;;;;;;;;4833138;29;20053;-81
2023/03/12 14:40:47;;;;;;;0.20;0.20;;;;;;;;;;4847231;29;20133;-78
2023/03/12 14:43:20;;;;;;;0.10;0.10;;;;;;;;;;4854150;29;20045;-83
2023/03/12 14:45:46;;;;;;;0.20;0.20;;;;;;;;;;4833877;29;20060;-78
2023/03/12 14:48:12;;;;;;;0.15;0.15;;;;;;;;;;4834419;29;20524;-82
2023/03/12 14:50:39;;;;;;;0.20;0.20;;;;;;;;;;4846114;29;20053;-82
2023/03/12 14:53:23;;;;;;;0.10;0.10;;;;;;;;;;4850220;29;20083;-83
2023/03/12 14:56:01;;;;;;;0.13;0.13;;;;;;;;;;4851543;29;20053;-81
2023/03/12 14:58:28;;;;;;;0.20;0.20;;;;;;;;;;4837597;29;20057;-82
2023/03/12 15:00:58;;;;;;;0.20;0.20;;;;;;;;;;4851455;29;20048;-82